createdAt,value
2018-07-28T00:02:25.837Z,7.50
2018-07-28T00:04:54.248Z,7.53
2018-07-28T00:07:22.957Z,6.87
2018-07-28T00:09:51.669Z,7.07
2018-07-28T00:12:20.591Z,7.50
2018-07-28T00:14:49.313Z,7.47
2018-07-28T00:17:18.099Z,7.17
2018-07-28T00:19:46.928Z,6.50
2018-07-28T00:22:15.757Z,7.10
2018-07-28T00:24:44.471Z,6.50
2018-07-28T00:27:13.189Z,7.03
2018-07-28T00:29:41.988Z,7.47
2018-07-28T00:32:10.757Z,6.93
2018-07-28T00:34:39.512Z,7.70
2018-07-28T00:37:08.233Z,6.80
2018-07-28T00:39:37.010Z,7.53
2018-07-28T00:42:05.884Z,6.80
2018-07-28T00:44:34.674Z,7.50
2018-07-28T00:47:03.446Z,7.17
2018-07-28T00:49:32.210Z,6.80
2018-07-28T00:52:00.919Z,6.77
2018-07-28T00:54:29.690Z,6.90
2018-07-28T00:56:58.499Z,6.33
2018-07-28T00:59:27.235Z,6.83
2018-07-28T01:01:56.612Z,7.53
2018-07-28T01:04:25.401Z,7.33
2018-07-28T01:06:54.190Z,7.77
2018-07-28T01:09:22.945Z,8.10
2018-07-28T01:11:55.995Z,7.43
2018-07-28T01:14:29.138Z,7.67
2018-07-28T01:17:05.395Z,7.50
2018-07-28T01:19:39.246Z,6.50
2018-07-28T01:22:12.638Z,7.47
2018-07-28T01:24:46.139Z,8.07
2018-07-28T01:27:21.092Z,6.50
2018-07-28T01:29:55.237Z,7.23
2018-07-28T01:32:29.474Z,6.77
2018-07-28T01:35:07.139Z,7.67
2018-07-28T01:37:40.296Z,6.73
2018-07-28T01:40:13.771Z,8.20
2018-07-28T01:42:47.034Z,7.63
2018-07-28T01:45:23.472Z,7.00
2018-07-28T01:47:56.617Z,7.37
2018-07-28T01:50:31.389Z,7.10
2018-07-28T01:53:06.752Z,8.23
2018-07-28T01:55:40.171Z,6.97
2018-07-28T01:58:13.070Z,7.17
2018-07-28T02:00:51.133Z,6.20
2018-07-28T02:03:24.487Z,7.10
2018-07-28T02:05:57.461Z,7.33
2018-07-28T02:08:30.154Z,6.97
2018-07-28T02:11:02.570Z,6.57
2018-07-28T02:13:35.481Z,7.50
2018-07-28T02:16:07.909Z,6.77
2018-07-28T02:18:40.560Z,8.87
2018-07-28T02:21:14.979Z,7.40
2018-07-28T02:23:47.626Z,6.97
2018-07-28T02:26:20.278Z,8.03
2018-07-28T02:28:48.961Z,7.33
2018-07-28T02:31:17.755Z,7.50
2018-07-28T02:33:46.532Z,7.30
2018-07-28T02:36:15.241Z,7.33
2018-07-28T02:38:43.986Z,7.47
2018-07-28T02:41:12.803Z,7.80
2018-07-28T02:43:41.529Z,7.63
2018-07-28T02:46:10.330Z,7.20
2018-07-28T02:48:39.029Z,7.90
2018-07-28T02:51:07.767Z,8.30
2018-07-28T02:53:40.677Z,8.00
2018-07-28T02:56:09.437Z,7.73
2018-07-28T02:58:38.260Z,7.33
2018-07-28T03:01:07.809Z,7.77
2018-07-28T03:03:36.677Z,7.50
2018-07-28T03:06:05.442Z,8.10
2018-07-28T03:08:34.277Z,7.87
2018-07-28T03:11:03.240Z,7.70
2018-07-28T03:13:31.980Z,7.90
2018-07-28T03:16:00.702Z,7.43
2018-07-28T03:18:29.610Z,7.50
2018-07-28T03:20:58.501Z,8.00
2018-07-28T03:23:27.291Z,7.70
2018-07-28T03:25:56.042Z,8.03
2018-07-28T03:28:24.852Z,7.90
2018-07-28T03:30:53.665Z,7.50
2018-07-28T03:33:22.395Z,7.37
2018-07-28T03:35:51.109Z,8.27
2018-07-28T03:38:19.852Z,7.97
2018-07-28T03:40:48.597Z,8.57
2018-07-28T03:43:17.378Z,7.10
2018-07-28T03:45:46.158Z,7.40
2018-07-28T03:48:14.961Z,7.50
2018-07-28T03:50:43.794Z,9.10
2018-07-28T03:53:12.617Z,7.73
2018-07-28T03:55:41.413Z,8.50
2018-07-28T03:58:10.142Z,7.67
2018-07-28T04:00:38.877Z,7.40
2018-07-28T04:03:07.582Z,8.00
2018-07-28T04:05:36.284Z,7.97
2018-07-28T04:08:05.280Z,8.87
2018-07-28T04:10:34.009Z,7.50
2018-07-28T04:13:02.804Z,8.50
2018-07-28T04:15:31.535Z,7.80
2018-07-28T04:18:00.355Z,7.93
2018-07-28T04:20:29.200Z,8.40
2018-07-28T04:22:57.896Z,7.80
2018-07-28T04:25:26.816Z,9.13
2018-07-28T04:27:55.638Z,8.87
2018-07-28T04:30:24.408Z,10.07
2018-07-28T04:32:53.112Z,9.90
2018-07-28T04:35:21.920Z,11.00
2018-07-28T04:37:50.618Z,11.60
2018-07-28T04:40:19.397Z,9.43
2018-07-28T04:42:48.161Z,9.47
2018-07-28T04:45:17.012Z,10.80
2018-07-28T04:47:46.724Z,9.87
2018-07-28T04:50:15.604Z,9.73
2018-07-28T04:52:44.318Z,10.20
2018-07-28T04:55:13.019Z,9.40
2018-07-28T04:57:41.778Z,9.40
2018-07-28T05:00:10.539Z,8.97
2018-07-28T05:02:39.249Z,9.80
2018-07-28T05:05:07.899Z,10.00
2018-07-28T05:07:36.781Z,9.60
2018-07-28T05:10:05.831Z,9.30
2018-07-28T05:12:34.510Z,9.00
2018-07-28T05:15:03.339Z,9.03
2018-07-28T05:17:32.075Z,10.57
2018-07-28T05:20:00.744Z,10.40
2018-07-28T05:22:29.599Z,10.47
2018-07-28T05:24:58.321Z,10.50
2018-07-28T05:27:27.068Z,12.60
2018-07-28T05:29:55.798Z,10.50
2018-07-28T05:32:24.696Z,10.50
2018-07-28T05:34:53.348Z,10.50
2018-07-28T05:37:22.145Z,10.67
2018-07-28T05:39:50.980Z,10.17
2018-07-28T05:42:19.741Z,10.40
2018-07-28T05:44:48.530Z,10.23
2018-07-28T05:47:17.297Z,9.60
2018-07-28T05:49:46.128Z,10.80
2018-07-28T05:52:15.028Z,10.07
2018-07-28T05:54:43.797Z,9.20
2018-07-28T05:57:12.576Z,10.77
2018-07-28T05:59:41.330Z,11.73
2018-07-28T06:02:10.141Z,10.60
2018-07-28T06:04:38.846Z,10.03
2018-07-28T06:07:07.626Z,11.00
2018-07-28T06:09:36.420Z,10.23
2018-07-28T06:12:05.170Z,10.57
2018-07-28T06:14:33.874Z,11.50
2018-07-28T06:17:02.647Z,10.73
2018-07-28T06:19:31.373Z,11.87
2018-07-28T06:22:00.234Z,11.03
2018-07-28T06:24:29.219Z,10.70
2018-07-28T06:26:58.102Z,10.93
2018-07-28T06:29:26.809Z,11.33
2018-07-28T06:31:55.613Z,11.43
2018-07-28T06:34:24.413Z,11.47
2018-07-28T06:36:53.170Z,11.00
2018-07-28T06:39:21.923Z,11.30
2018-07-28T06:41:50.721Z,11.50
2018-07-28T06:44:19.457Z,11.57
2018-07-28T06:46:48.185Z,12.87
2018-07-28T06:49:16.964Z,10.13
2018-07-28T06:51:45.799Z,11.20
2018-07-28T06:54:15.072Z,10.40
2018-07-28T06:56:43.850Z,11.27
2018-07-28T06:59:12.695Z,10.93
2018-07-28T07:01:41.488Z,10.10
2018-07-28T07:04:10.338Z,10.00
2018-07-28T07:06:39.112Z,9.37
2018-07-28T07:09:09.994Z,8.50
2018-07-28T07:11:38.731Z,9.47
2018-07-28T07:14:07.651Z,8.70
2018-07-28T07:16:36.506Z,9.20
2018-07-28T07:19:05.282Z,9.13
2018-07-28T07:21:34.201Z,9.13
2018-07-28T07:24:02.913Z,9.63
2018-07-28T07:26:31.761Z,9.67
2018-07-28T07:29:00.440Z,8.57
2018-07-28T07:31:29.134Z,8.13
2018-07-28T07:33:57.940Z,8.80
2018-07-28T07:36:26.781Z,8.43
2018-07-28T07:38:55.600Z,8.43
2018-07-28T07:41:24.410Z,8.07
2018-07-28T07:43:53.151Z,8.03
2018-07-28T07:46:21.871Z,8.63
2018-07-28T07:48:50.626Z,8.03
2018-07-28T07:51:19.280Z,7.60
2018-07-28T07:53:48.055Z,8.90
2018-07-28T07:56:16.770Z,7.60
2018-07-28T07:58:45.473Z,6.97
2018-07-28T08:01:14.220Z,7.50
2018-07-28T08:03:42.975Z,6.80
2018-07-28T08:06:11.758Z,6.77
2018-07-28T08:08:40.555Z,7.73
2018-07-28T08:11:09.445Z,7.87
2018-07-28T08:13:38.261Z,7.20
2018-07-28T08:16:07.004Z,6.50
2018-07-28T08:18:35.760Z,7.23
2018-07-28T08:21:04.654Z,6.30
2018-07-28T08:23:33.400Z,7.30
2018-07-28T08:26:02.211Z,6.47
2018-07-28T08:28:30.931Z,6.30
2018-07-28T08:30:59.820Z,7.40
2018-07-28T08:33:28.631Z,7.70
2018-07-28T08:35:57.350Z,6.53
2018-07-28T08:38:26.854Z,6.60
2018-07-28T08:40:55.693Z,6.27
2018-07-28T08:43:24.529Z,7.60
2018-07-28T08:45:53.320Z,6.27
2018-07-28T08:48:22.318Z,6.53
2018-07-28T08:50:51.162Z,6.53
2018-07-28T08:53:19.937Z,6.93
2018-07-28T08:55:48.885Z,7.23
2018-07-28T08:58:17.696Z,7.47
2018-07-28T09:00:46.388Z,6.57
2018-07-28T09:03:15.070Z,6.23
2018-07-28T09:05:43.775Z,6.10
2018-07-28T09:08:12.614Z,6.83
2018-07-28T09:10:41.368Z,6.00
2018-07-28T09:13:10.164Z,5.33
2018-07-28T09:15:38.909Z,6.20
2018-07-28T09:18:07.648Z,6.27
2018-07-28T09:20:36.548Z,6.03
2018-07-28T09:23:05.477Z,6.93
2018-07-28T09:25:34.304Z,7.37
2018-07-28T09:28:03.232Z,5.80
2018-07-28T09:30:32.292Z,5.97
2018-07-28T09:33:01.024Z,5.27
2018-07-28T09:35:29.754Z,5.67
2018-07-28T09:37:58.625Z,6.50
2018-07-28T09:40:27.361Z,6.73
2018-07-28T09:42:56.201Z,5.90
2018-07-28T09:45:24.862Z,5.97
2018-07-28T09:47:53.651Z,6.10
2018-07-28T09:50:22.514Z,5.67
2018-07-28T09:52:51.344Z,5.77
2018-07-28T09:55:20.034Z,5.60
2018-07-28T09:57:48.847Z,6.70
2018-07-28T10:00:21.825Z,7.20
2018-07-28T10:02:50.583Z,6.30
2018-07-28T10:05:19.336Z,6.77
2018-07-28T10:07:47.681Z,6.50
2018-07-28T10:10:16.494Z,6.43
2018-07-28T10:12:45.211Z,5.70
2018-07-28T10:15:14.020Z,6.73
2018-07-28T10:17:42.842Z,7.30
2018-07-28T10:20:11.647Z,7.30
2018-07-28T10:22:40.448Z,6.63
2018-07-28T10:25:08.771Z,6.30
2018-07-28T10:27:37.519Z,7.40
2018-07-28T10:30:07.716Z,6.63
2018-07-28T10:32:37.176Z,6.73
2018-07-28T10:35:07.325Z,7.70
2018-07-28T10:37:36.387Z,6.50
2018-07-28T10:40:06.000Z,6.50
2018-07-28T10:42:34.948Z,7.07
2018-07-28T10:45:03.799Z,6.47
2018-07-28T10:47:32.626Z,6.47
2018-07-28T10:50:01.376Z,6.40
2018-07-28T10:52:30.190Z,7.13
2018-07-28T10:54:58.972Z,7.60
2018-07-28T10:57:27.793Z,7.30
2018-07-28T10:59:56.634Z,7.97
2018-07-28T11:02:25.509Z,7.60
2018-07-28T11:04:54.249Z,7.20
2018-07-28T11:07:23.117Z,7.63
2018-07-28T11:09:51.838Z,8.10
2018-07-28T11:12:20.661Z,7.77
2018-07-28T11:14:49.402Z,8.30
2018-07-28T11:17:18.213Z,7.80
2018-07-28T11:19:46.928Z,7.50
2018-07-28T11:22:15.712Z,7.23
2018-07-28T11:24:44.440Z,7.00
2018-07-28T11:27:13.155Z,7.23
2018-07-28T11:29:41.960Z,6.87
2018-07-28T11:32:21.992Z,6.53
2018-07-28T11:35:01.772Z,7.50
2018-07-28T11:38:35.333Z,6.37
2018-07-28T11:41:15.706Z,6.40
2018-07-28T11:43:55.678Z,6.70
2018-07-28T11:46:24.505Z,6.53
2018-07-28T11:48:54.078Z,6.60
2018-07-28T11:51:23.800Z,6.17
2018-07-28T11:53:53.608Z,7.40
2018-07-28T11:56:22.570Z,6.70
2018-07-28T11:58:51.451Z,5.87
2018-07-28T12:01:20.153Z,6.30
2018-07-28T12:03:48.897Z,6.53
2018-07-28T12:06:17.596Z,6.87
2018-07-28T12:08:46.471Z,7.33
2018-07-28T12:11:15.342Z,6.93
2018-07-28T12:13:44.113Z,6.33
2018-07-28T12:16:13.005Z,7.00
2018-07-28T12:18:41.905Z,7.30
2018-07-28T12:21:11.436Z,8.20
2018-07-28T12:23:40.230Z,7.10
2018-07-28T12:26:09.132Z,7.23
2018-07-28T12:28:38.119Z,5.90
2018-07-28T12:31:07.458Z,6.80
2018-07-28T12:33:36.432Z,5.67
2018-07-28T12:36:07.010Z,7.60
2018-07-28T12:38:36.133Z,7.03
2018-07-28T12:41:05.276Z,7.57
2018-07-28T12:43:34.106Z,6.83
2018-07-28T12:46:04.619Z,6.50
2018-07-28T12:48:33.543Z,6.23
2018-07-28T12:51:02.841Z,5.53
2018-07-28T12:53:31.714Z,6.23
2018-07-28T12:56:00.399Z,6.40
2018-07-28T12:58:29.148Z,5.70
2018-07-28T13:00:57.890Z,5.87
2018-07-28T13:03:26.605Z,5.67
2018-07-28T13:05:55.481Z,5.73
2018-07-28T13:08:24.208Z,6.27
2018-07-28T13:10:53.119Z,6.87
2018-07-28T13:13:21.959Z,6.30
2018-07-28T13:15:50.895Z,5.80
2018-07-28T13:18:19.717Z,6.40
2018-07-28T13:20:48.436Z,6.63
2018-07-28T13:23:17.218Z,7.80
2018-07-28T13:25:46.176Z,7.73
2018-07-28T13:28:14.972Z,7.47
2018-07-28T13:30:43.645Z,7.73
2018-07-28T13:33:12.341Z,7.87
2018-07-28T13:35:41.155Z,6.30
2018-07-28T13:38:10.016Z,7.83
2018-07-28T13:40:38.935Z,6.83
2018-07-28T13:43:07.912Z,6.90
2018-07-28T13:45:36.713Z,6.70
2018-07-28T13:48:05.556Z,6.50
2018-07-28T13:50:34.368Z,6.83
2018-07-28T13:53:03.179Z,7.17
2018-07-28T13:55:32.385Z,7.30
2018-07-28T13:58:01.339Z,6.50
2018-07-28T14:00:30.182Z,6.60
2018-07-28T14:02:59.305Z,6.70
2018-07-28T14:05:28.457Z,7.43
2018-07-28T14:07:57.290Z,7.00
2018-07-28T14:10:26.270Z,7.00
2018-07-28T14:12:55.044Z,8.80
2018-07-28T14:15:23.798Z,6.50
2018-07-28T14:17:52.811Z,7.33
2018-07-28T14:20:21.738Z,7.60
2018-07-28T14:22:50.979Z,6.20
2018-07-28T14:25:19.893Z,8.00
2018-07-28T14:27:48.647Z,7.87
2018-07-28T14:30:17.916Z,7.73
2018-07-28T14:32:46.735Z,7.37
2018-07-28T14:35:15.626Z,8.50
2018-07-28T14:37:45.616Z,7.67
2018-07-28T14:40:14.676Z,7.50
2018-07-28T14:42:43.630Z,8.70
2018-07-28T14:45:13.020Z,7.53
2018-07-28T14:47:41.880Z,6.57
2018-07-28T14:50:10.793Z,7.10
2018-07-28T14:52:39.692Z,8.47
2018-07-28T14:55:09.376Z,7.77
2018-07-28T14:57:38.252Z,7.70
2018-07-28T15:00:07.281Z,7.47
2018-07-28T15:02:36.051Z,8.53
2018-07-28T15:05:04.929Z,7.67
2018-07-28T15:07:33.715Z,7.67
2018-07-28T15:10:02.452Z,7.00
2018-07-28T15:12:31.176Z,7.10
2018-07-28T15:14:59.877Z,7.00
2018-07-28T15:17:28.598Z,8.60
2018-07-28T15:19:57.446Z,7.53
2018-07-28T15:22:26.526Z,7.30
2018-07-28T15:24:55.964Z,8.27
2018-07-28T15:27:24.906Z,7.00
2018-07-28T15:29:53.649Z,7.67
2018-07-28T15:32:22.557Z,7.17
2018-07-28T15:34:51.548Z,6.70
2018-07-28T15:37:20.305Z,6.20
2018-07-28T15:39:49.430Z,7.10
2018-07-28T15:42:18.256Z,7.33
2018-07-28T15:44:46.999Z,6.43
2018-07-28T15:47:15.702Z,8.00
2018-07-28T15:49:44.831Z,7.13
2018-07-28T15:52:13.617Z,7.60
2018-07-28T15:54:42.859Z,7.87
2018-07-28T15:57:11.657Z,8.33
2018-07-28T15:59:40.601Z,8.43
2018-07-28T16:02:09.434Z,8.43
2018-07-28T16:04:38.208Z,8.67
2018-07-28T16:07:07.266Z,8.20
2018-07-28T16:09:35.969Z,7.43
2018-07-28T16:12:04.727Z,8.80
2018-07-28T16:14:33.668Z,9.23
2018-07-28T16:17:02.437Z,8.00
2018-07-28T16:19:31.293Z,8.50
2018-07-28T16:22:00.122Z,8.73
2018-07-28T16:24:28.855Z,9.27
2018-07-28T16:26:57.649Z,8.13
2018-07-28T16:29:26.573Z,9.00
2018-07-28T16:31:57.785Z,7.90
2018-07-28T16:34:26.604Z,8.27
2018-07-28T16:36:55.102Z,8.37
2018-07-28T16:39:23.947Z,9.00
2018-07-28T16:41:52.979Z,7.83
2018-07-28T16:44:22.127Z,8.30
2018-07-28T16:46:51.062Z,8.50
2018-07-28T16:49:19.840Z,7.00
2018-07-28T16:51:48.742Z,7.03
2018-07-28T16:54:17.949Z,8.30
2018-07-28T16:56:46.815Z,7.57
2018-07-28T16:59:15.614Z,8.67
2018-07-28T17:01:45.014Z,8.30
2018-07-28T17:04:14.005Z,8.77
2018-07-28T17:06:43.133Z,8.70
2018-07-28T17:09:13.249Z,8.80
2018-07-28T17:11:42.999Z,7.50
2018-07-28T17:14:12.001Z,8.00
2018-07-28T17:16:41.262Z,8.50
2018-07-28T17:19:10.152Z,6.97
2018-07-28T17:21:39.552Z,8.20
2018-07-28T17:24:08.617Z,8.60
2018-07-28T17:26:37.809Z,7.73
2018-07-28T17:29:06.989Z,8.87
2018-07-28T17:31:35.849Z,8.30
2018-07-28T17:34:04.906Z,7.30
2018-07-28T17:36:33.799Z,8.33
2018-07-28T17:39:02.734Z,8.00
2018-07-28T17:41:31.575Z,8.20
2018-07-28T17:44:00.766Z,8.37
2018-07-28T17:46:29.764Z,7.50
2018-07-28T17:48:58.639Z,8.60
2018-07-28T17:51:27.885Z,7.80
2018-07-28T17:53:56.738Z,8.60
2018-07-28T17:56:25.709Z,8.37
2018-07-28T17:58:54.467Z,7.57
2018-07-28T18:01:23.525Z,8.73
2018-07-28T18:03:52.509Z,8.13
2018-07-28T18:06:21.455Z,7.57
2018-07-28T18:08:50.466Z,7.83
2018-07-28T18:11:19.767Z,8.50
2018-07-28T18:13:48.935Z,8.17
2018-07-28T18:16:17.631Z,8.20
2018-07-28T18:18:46.470Z,8.20
2018-07-28T18:21:15.214Z,8.20
2018-07-28T18:23:43.966Z,8.00
2018-07-28T18:26:12.908Z,7.80
2018-07-28T18:28:41.912Z,7.73
2018-07-28T18:31:10.740Z,8.13
2018-07-28T18:33:39.424Z,8.20
2018-07-28T18:36:08.439Z,9.80
2018-07-28T18:38:37.406Z,7.73
2018-07-28T18:41:06.233Z,8.50
2018-07-28T18:43:34.956Z,7.90
2018-07-28T18:46:03.781Z,8.40
2018-07-28T18:48:33.154Z,7.47
2018-07-28T18:51:01.949Z,8.00
2018-07-28T18:53:30.890Z,7.30
2018-07-28T18:55:59.620Z,8.53
2018-07-28T18:58:28.412Z,7.20
2018-07-28T19:00:57.374Z,8.07
2018-07-28T19:03:26.375Z,8.00
2018-07-28T19:05:55.349Z,8.20
2018-07-28T19:08:24.461Z,8.67
2018-07-28T19:10:54.010Z,8.37
2018-07-28T19:13:28.327Z,9.30
2018-07-28T19:15:57.774Z,8.20
2018-07-28T19:18:32.093Z,8.17
2018-07-28T19:21:00.532Z,8.20
2018-07-28T19:23:34.493Z,8.90
2018-07-28T19:26:03.437Z,8.57
2018-07-28T19:28:37.245Z,9.40
2018-07-28T19:31:06.973Z,8.53
2018-07-28T19:33:35.630Z,8.50
2018-07-28T19:36:09.672Z,8.50
2018-07-28T19:38:38.799Z,8.63
2018-07-28T19:41:08.137Z,9.20
2018-07-28T19:43:37.044Z,9.37
2018-07-28T19:46:05.889Z,8.83
2018-07-28T19:48:34.645Z,10.50
2018-07-28T19:51:03.463Z,9.87
2018-07-28T19:53:32.178Z,8.50
2018-07-28T19:56:00.501Z,9.20
2018-07-28T19:58:29.468Z,8.70
2018-07-28T20:00:58.295Z,8.83
2018-07-28T20:03:38.832Z,8.80
2018-07-28T20:06:07.609Z,9.23
2018-07-28T20:08:36.323Z,9.03
2018-07-28T20:11:05.314Z,9.33
2018-07-28T20:13:34.000Z,9.40
2018-07-28T20:16:02.690Z,8.83
2018-07-28T20:18:31.731Z,10.10
2018-07-28T20:21:00.473Z,9.57
2018-07-28T20:23:29.283Z,9.80
2018-07-28T20:25:58.345Z,9.10
2018-07-28T20:28:27.290Z,9.30
2018-07-28T20:30:56.657Z,9.30
2018-07-28T20:33:25.694Z,8.97
2018-07-28T20:35:54.199Z,9.50
2018-07-28T20:38:23.566Z,9.90
2018-07-28T20:40:52.325Z,9.80
2018-07-28T20:43:21.301Z,9.07
2018-07-28T20:45:50.388Z,9.17
2018-07-28T20:48:19.187Z,9.63
2018-07-28T20:50:47.946Z,9.80
2018-07-28T20:53:16.802Z,8.40
2018-07-28T20:55:45.879Z,9.60
2018-07-28T20:58:15.337Z,10.00
2018-07-28T21:00:44.723Z,10.30
2018-07-28T21:03:13.378Z,10.07
2018-07-28T21:05:42.829Z,9.10
2018-07-28T21:08:11.804Z,8.90
2018-07-28T21:10:41.306Z,9.50
2018-07-28T21:13:10.305Z,9.27
2018-07-28T21:15:39.215Z,8.77
2018-07-28T21:18:08.189Z,8.50
2018-07-28T21:20:37.156Z,8.83
2018-07-28T21:23:05.902Z,8.77
2018-07-28T21:25:34.647Z,8.83
2018-07-28T21:28:03.463Z,8.20
2018-07-28T21:30:32.341Z,8.90
2018-07-28T21:33:01.652Z,8.43
2018-07-28T21:35:30.959Z,8.80
2018-07-28T21:38:00.074Z,8.00
2018-07-28T21:40:28.846Z,8.97
2018-07-28T21:42:57.988Z,7.90
2018-07-28T21:45:27.285Z,8.60
2018-07-28T21:47:56.389Z,7.87
2018-07-28T21:50:25.285Z,7.97
2018-07-28T21:52:54.111Z,8.40
2018-07-28T21:55:23.231Z,8.43
2018-07-28T21:57:52.318Z,8.63
2018-07-28T22:00:21.688Z,8.13
2018-07-28T22:02:50.702Z,8.17
2018-07-28T22:05:20.456Z,7.77
2018-07-28T22:07:50.472Z,7.63
2018-07-28T22:10:19.258Z,7.53
2018-07-28T22:12:48.057Z,8.27
2018-07-28T22:15:16.784Z,8.40
2018-07-28T22:17:45.538Z,8.17
2018-07-28T22:20:14.644Z,7.40
2018-07-28T22:22:43.596Z,7.50
2018-07-28T22:25:12.312Z,8.63
2018-07-28T22:27:41.102Z,6.80
2018-07-28T22:30:09.908Z,7.83
2018-07-28T22:32:38.920Z,7.30
2018-07-28T22:35:07.715Z,8.00
2018-07-28T22:37:36.539Z,7.63
2018-07-28T22:40:05.226Z,7.20
2018-07-28T22:42:51.668Z,7.30
2018-07-28T22:45:21.613Z,7.27
2018-07-28T22:47:50.367Z,6.53
2018-07-28T22:50:19.073Z,7.80
2018-07-28T22:52:47.885Z,7.10
2018-07-28T22:55:16.730Z,7.47
2018-07-28T22:57:45.468Z,7.67
2018-07-28T23:00:14.293Z,6.83
2018-07-28T23:02:43.119Z,7.20
2018-07-28T23:05:11.896Z,7.97
2018-07-28T23:07:40.617Z,7.93
2018-07-28T23:10:09.368Z,6.87
2018-07-28T23:12:38.104Z,7.90
2018-07-28T23:15:07.283Z,8.07
2018-07-28T23:17:36.012Z,8.20
2018-07-28T23:20:06.059Z,8.47
2018-07-28T23:22:34.797Z,7.20
2018-07-28T23:25:03.861Z,7.27
2018-07-28T23:27:33.358Z,7.20
2018-07-28T23:30:02.247Z,7.13
2018-07-28T23:32:31.082Z,7.60
2018-07-28T23:34:59.833Z,6.70
2018-07-28T23:37:28.608Z,6.70
2018-07-28T23:39:57.405Z,8.23
2018-07-28T23:42:26.129Z,8.23
2018-07-28T23:44:54.905Z,7.50
2018-07-28T23:47:23.636Z,7.30
2018-07-28T23:49:52.412Z,6.90
2018-07-28T23:52:21.218Z,6.80
2018-07-28T23:54:49.955Z,7.20
2018-07-28T23:57:18.673Z,7.50
2018-07-28T23:59:47.406Z,7.70
